Wideman, Arkansas
Current Conditions -  °F | °C
As of 9:53 PM on Sunday 23 Nov 2014 (Local Time) from KBPK Reporting Station
Overcast Overcast  
Wind Chill: 56°   Ceiling: 6000
Heat Index: 56°   Visibility: 10mi
Dew Point: 52°   Wind: 8mph
Humidity: 87%   Direction: 230°SW
Pressure: 29.31"   Gusts: NA
Location:  36.19°N, 92.01°W
Report Text: KBPK 240353Z AUTO 23007KT 10SM FEW033 BKN060 OVC075 13/11 A2931 RMK AO2 LTG DSNT N RAE0256 SLP922 P0000 T01330111
Loading
Personal Weather Stations






























Interactive Weather Map New forecast layout! Learn more

10-Day Weather Forecast

Advertisements
Track Severe Weather on mobile